Latest Weather Observations for Mildura

IDN60801

Issued at 5:22 am EDT Wednesday 13 November 2019 (issued every 10 minutes, with the page automatically refreshed every 10 minutes)

About weather observations | Map of weather stations | Latest weather observations for NSW | Other Formats
Station Details ID: 076031 Name: MILDURA AIRPORT Lat: -34.24 Lon: 142.09 Height: 50.0 m
Data from the previous 72 hours. | See also: Recent months at Mildura
Date/Time
EDT
Temp
°C
App
Temp
°C
Dew
Point
°C
Rel
Hum
%
Delta-T
°C
Wind Press
QNH
hPa
Press
MSL
hPa
Rain since
9am
mm
Dir  Spd
km/h
Gust
km/h
Spd
kts
Gust
kts
13/05:00am 7.9 4.7 2.8 70 2.1 WSW 9 13 5 7 1020.5 1020.3 0.0
13/04:30am 8.1 5.2 2.6 68 2.3 WSW 7 11 4 6 1020.5 1020.3 0.0
13/04:00am 8.7 5.4 2.7 66 2.5 WSW 9 13 5 7 1020.6 1020.4 0.0
13/03:30am 9.3 6.1 2.9 64 2.7 WSW 9 15 5 8 1020.7 1020.5 0.0
13/03:00am 9.5 6.2 2.6 62 2.9 SW 9 13 5 7 1020.9 1020.7 0.0
13/02:30am 10.0 6.7 2.6 60 3.2 SW 9 13 5 7 1021.1 1020.9 0.0
13/02:00am 10.5 7.1 2.1 56 3.6 SW 9 15 5 8 1021.2 1021.0 0.0
13/01:30am 10.8 7.0 1.6 53 3.9 SW 11 15 6 8 1021.4 1021.2 0.0
13/01:00am 11.4 7.5 1.4 50 4.2 SW 11 15 6 8 1021.2 1021.0 0.0
13/12:30am 11.9 7.2 1.0 47 4.6 SW 15 22 8 12 1021.2 1021.0 0.0
13/12:00am 12.4 7.7 0.8 45 4.9 SW 15 24 8 13 1021.1 1020.9 0.0
 
Date/Time
EDT
Temp
°C
App
Temp
°C
Dew
Point
°C
Rel
Hum
%
Delta-T
°C
Wind Press
QNH
hPa
Press
MSL
hPa
Rain since
9am
mm
Dir  Spd
km/h
Gust
km/h
Spd
kts
Gust
kts
12/11:30pm 12.9 7.7 0.3 42 5.3 SW 17 24 9 13 1021.0 1020.8 0.0
12/11:00pm 13.5 7.4 0.2 40 5.6 SW 22 39 12 21 1020.7 1020.5 0.0
12/10:30pm 14.1 7.3 0.7 40 5.7 SW 26 43 14 23 1020.3 1020.1 0.0
12/10:00pm 14.8 8.5 1.3 40 5.8 SW 24 37 13 20 1019.8 1019.6 0.0
12/09:30pm 15.4 9.4 0.8 37 6.3 SW 22 39 12 21 1019.2 1019.0 0.0
12/09:00pm 15.8 10.3 0.4 35 6.6 SW 19 32 10 17 1018.5 1018.3 0.0
12/08:30pm 16.3 10.2 0.4 34 6.9 SW 22 41 12 22 1018.2 1018.0 0.0
12/08:00pm 17.0 10.5 0.2 32 7.3 SW 24 41 13 22 1017.4 1017.3 0.0
12/07:37pm 17.6 10.3 0.3 31 7.5 SW 28 46 15 25 1016.8 1016.7 0.0
12/07:30pm 17.9 10.5 -0.4 29 7.9 SW 28 44 15 24 1016.7 1016.6 0.0
12/07:00pm 18.9 12.5 -1.5 25 8.7 SW 22 37 12 20 1016.0 1015.9 0.0
12/06:48pm 18.9 10.4 -2.1 24 8.8 SW 33 48 18 26 1015.8 1015.7 0.0
12/06:36pm 19.2 11.3 -1.8 24 8.9 WSW 30 46 16 25 1015.6 1015.5 0.0
12/06:30pm 19.7 12.2 -1.4 24 9.1 SW 28 46 15 25 1015.4 1015.3 0.0
12/06:12pm 19.9 11.9 -2.4 22 9.4 SW 30 48 16 26 1015.2 1015.1 0.0
12/06:00pm 20.0 12.8 -2.3 22 9.4 SW 26 44 14 24 1015.1 1015.0 0.0
12/05:43pm 20.1 12.7 -0.5 25 9.0 SW 28 46 15 25 1015.0 1014.9 0.0
12/05:39pm 20.5 13.9 -0.7 24 9.3 SW 24 43 13 23 1014.9 1014.8 0.0
12/05:30pm 20.6 13.6 -0.7 24 9.3 SW 26 43 14 23 1015.0 1014.9 0.0
12/05:21pm 20.8 13.0 -1.1 23 9.5 SW 30 57 16 31 1014.8 1014.7 0.0
12/05:16pm 20.6 12.4 -0.7 24 9.3 SW 32 57 17 31 1014.7 1014.6 0.0
12/05:04pm 20.9 13.5 -0.4 24 9.4 SW 28 50 15 27 1014.5 1014.4 0.0
12/05:00pm 21.2 13.7 -1.3 22 9.8 SW 28 41 15 22 1014.5 1014.4 0.0
12/04:31pm 21.3 13.3 -2.5 20 10.1 WSW 30 48 16 26 1014.2 1014.1 0.0
12/04:30pm 20.9 12.5 -2.2 21 9.9 WSW 32 48 17 26 1014.1 1014.0 0.0
12/04:06pm 21.5 14.0 -1.7 21 10.1 SW 28 48 15 26 1014.2 1014.1 0.0
12/04:00pm 21.7 14.9 -2.2 20 10.3 SW 24 41 13 22 1014.1 1014.0 0.0
12/03:30pm 20.8 12.9 -1.7 22 9.7 SW 30 46 16 25 1014.2 1014.1 0.0
12/03:12pm 20.8 13.3 -1.1 23 9.5 WSW 28 48 15 26 1014.1 1014.0 0.0
12/03:00pm 21.3 13.8 -1.3 22 9.9 WSW 28 44 15 24 1014.1 1014.0 0.0
12/02:54pm 21.0 13.6 -0.9 23 9.6 SW 28 44 15 24 1014.2 1014.1 0.0
12/02:30pm 20.3 13.0 0.2 26 9.0 SW 28 48 15 26 1014.4 1014.3 0.0
12/02:17pm 20.7 13.0 0.0 25 9.2 SW 30 52 16 28 1014.5 1014.4 0.0
12/02:11pm 20.3 12.6 0.2 26 9.0 SW 30 52 16 28 1014.5 1014.4 0.0
12/02:00pm 21.7 14.4 0.3 24 9.7 SW 28 43 15 23 1014.4 1014.3 0.0
12/01:57pm 20.9 13.3 0.7 26 9.1 SW 30 50 16 27 1014.3 1014.2 0.0
12/01:40pm 20.6 13.0 0.4 26 9.1 SW 30 48 16 26 1014.3 1014.2 0.0
12/01:30pm 20.3 13.0 0.2 26 9.0 SW 28 44 15 24 1014.3 1014.2 0.0
12/01:00pm 20.4 13.1 -0.3 25 9.1 SW 28 46 15 25 1014.3 1014.2 0.0
12/12:41pm 19.8 12.5 0.3 27 8.7 SW 28 46 15 25 1014.5 1014.4 0.0
12/12:30pm 19.1 11.9 0.7 29 8.2 SW 28 44 15 24 1014.5 1014.4 0.0
12/12:00pm 19.0 11.2 1.5 31 7.9 SW 32 56 17 30 1014.4 1014.3 0.0
12/11:39am 18.5 11.4 1.5 32 7.7 SW 28 48 15 26 1014.3 1014.2 0.0
12/11:30am 18.1 11.0 1.6 33 7.4 SW 28 44 15 24 1014.4 1014.3 0.0
12/11:14am 17.8 10.8 2.2 35 7.1 SW 28 48 15 26 1014.4 1014.3 0.0
12/11:00am 17.3 10.4 2.5 37 6.7 SW 28 41 15 22 1014.5 1014.4 0.0
12/10:30am 16.3 9.9 3.4 42 5.9 SW 26 44 14 24 1014.4 1014.3 0.0
12/10:00am 16.3 10.3 3.4 42 5.9 SW 24 39 13 21 1014.1 1014.0 0.0
12/09:30am 15.5 8.6 2.3 41 5.9 SSW 28 41 15 22 1014.0 1013.9 0.0
12/09:14am 15.2 8.3 2.4 42 5.7 SSW 28 46 15 25 1013.9 1013.8 0.0
12/09:00am 14.9 8.0 2.4 43 5.6 SSW 28 41 15 22 1013.8 1013.7 0.0
12/08:30am 13.7 7.4 3.8 51 4.5 SSW 26 43 14 23 1013.4 1013.3 0.0
12/08:13am 13.9 7.2 3.4 49 4.7 SW 28 46 15 25 1013.1 1013.0 0.0
12/08:00am 13.9 7.2 3.7 50 4.6 SW 28 43 15 23 1012.7 1012.6 0.0
12/07:30am 13.9 8.0 3.9 51 4.6 SW 24 44 13 24 1012.1 1012.0 0.0
12/07:00am 14.3 8.9 6.4 59 3.8 SW 24 43 13 23 1011.3 1011.2 0.0
12/06:30am 15.0 10.4 8.3 64 3.4 SW 22 35 12 19 1010.5 1010.4 0.0
12/06:00am 15.4 9.8 8.6 64 3.5 SW 28 46 15 25 1009.6 1009.5 0.0
12/05:54am 15.5 9.9 8.7 64 3.5 SW 28 46 15 25 1009.4 1009.3 0.0
12/05:42am 15.9 11.2 9.3 65 3.4 SW 24 35 13 19 1009.1 1009.0 0.0
12/05:30am 16.0 11.7 9.2 64 3.5 SW 22 44 12 24 1008.7 1008.6 0.0
12/05:00am 16.1 10.8 9.8 66 3.3 SW 28 44 15 24 1008.4 1008.3 0.0
12/04:32am 16.1 10.5 10.0 67 3.2 WSW 30 48 16 26 1007.7 1007.6 0.0
12/04:30am 16.2 11.0 10.1 67 3.2 WSW 28 44 15 24 1007.6 1007.5 0.0
12/04:05am 17.5 11.6 8.9 57 4.5 WSW 30 46 16 25 1007.0 1006.8 0.0
12/04:00am 17.7 11.3 8.6 55 4.7 WSW 32 54 17 29 1006.9 1006.7 0.0
12/03:30am 19.8 13.5 5.8 40 6.9 SW 28 46 15 25 1006.1 1005.9 0.0
12/03:10am 21.4 14.6 3.1 30 8.7 WSW 28 46 15 25 1005.6 1005.4 0.0
12/03:07am 22.0 15.0 2.2 27 9.3 WSW 28 44 15 24 1005.5 1005.3 0.0
12/03:00am 23.6 16.1 -4.5 15 11.8 W 26 44 14 24 1005.3 1005.1 0.0
12/02:59am 23.8 16.3 -4.4 15 11.8 WNW 26 44 14 24 1005.2 1005.0 0.0
12/02:30am 25.5 18.9 -9.7 9 13.6 NNW 19 28 10 15 1004.2 1004.0 0.0
12/02:00am 25.9 19.1 -9.4 9 13.8 NNW 20 32 11 17 1004.1 1003.9 0.0
12/01:30am 26.7 19.6 -8.8 9 14.1 NNW 22 33 12 18 1004.4 1004.2 0.0
12/01:00am 27.3 19.7 -9.8 8 14.6 NNW 24 39 13 21 1004.8 1004.6 0.0
12/12:30am 27.5 19.9 -9.7 8 14.7 N 24 33 13 18 1004.6 1004.4 0.0
12/12:00am 27.3 20.2 -8.3 9 14.4 N 22 33 12 18 1005.2 1005.0 0.0
 
Date/Time
EDT
Temp
°C
App
Temp
°C
Dew
Point
°C
Rel
Hum
%
Delta-T
°C
Wind Press
QNH
hPa
Press
MSL
hPa
Rain since
9am
mm
Dir  Spd
km/h
Gust
km/h
Spd
kts
Gust
kts
11/11:30pm 27.6 20.5 -8.1 9 14.5 N 22 33 12 18 1005.7 1005.5 0.0
11/11:00pm 27.9 21.2 -7.9 9 14.7 N 20 32 11 17 1005.8 1005.6 0.0
11/10:30pm 27.9 20.8 -7.9 9 14.6 N 22 32 12 17 1005.8 1005.6 0.0
11/10:00pm 27.3 20.2 -8.3 9 14.4 N 22 28 12 15 1005.7 1005.5 0.0
11/09:30pm 27.8 22.1 -7.9 9 14.6 N 15 19 8 10 1006.0 1005.8 0.0
11/09:00pm 29.0 22.8 -8.5 8 15.4 N 17 24 9 13 1005.9 1005.7 0.0
11/08:30pm 29.4 23.6 -8.2 8 15.5 N 15 22 8 12 1006.0 1005.8 0.0
11/08:00pm 30.6 24.4 -9.1 7 16.4 N 17 22 9 12 1006.1 1005.9 0.0
11/07:30pm 31.6 24.9 -8.3 7 16.8 NNW 20 28 11 15 1006.3 1006.1 0.0
11/07:00pm 32.3 24.9 -7.8 7 17.1 NNW 24 37 13 20 1006.2 1006.0 0.0
11/06:30pm 32.6 24.8 -7.6 7 17.2 NNW 26 39 14 21 1006.4 1006.2 0.0
11/06:00pm 32.8 25.0 -7.5 7 17.4 NNW 26 39 14 21 1006.6 1006.4 0.0
11/05:30pm 32.9 25.1 -7.4 7 17.4 N 26 43 14 23 1006.9 1006.7 0.0
11/05:00pm 33.2 26.2 -7.2 7 17.6 NNW 22 43 12 23 1007.4 1007.2 0.0
11/04:30pm 32.9 25.5 -7.4 7 17.4 NNW 24 43 13 23 1007.9 1007.8 0.0
11/04:00pm 32.6 24.8 -7.6 7 17.3 NNW 26 39 14 21 1008.3 1008.2 0.0
11/03:30pm 32.3 24.5 -7.8 7 17.1 NNW 26 41 14 22 1008.9 1008.8 0.0
11/03:00pm 32.4 25.1 -6.0 8 16.9 NW 24 35 13 19 1009.5 1009.4 0.0
11/02:30pm 31.5 23.8 -6.7 8 16.5 NNW 26 39 14 21 1010.3 1010.2 0.0
11/02:00pm 30.6 23.3 -5.8 9 15.8 NNW 24 39 13 21 1010.8 1010.7 0.0
11/01:30pm 30.4 23.1 -6.0 9 15.7 NNW 24 35 13 19 1011.4 1011.3 0.0
11/01:00pm 30.0 22.5 -4.9 10 15.3 N 26 37 14 20 1011.9 1011.8 0.0
11/12:30pm 28.9 21.7 -5.7 10 14.8 NNW 24 37 13 20 1012.6 1012.5 0.0
11/12:00pm 29.2 22.1 -4.3 11 14.8 NNW 24 33 13 18 1013.1 1013.0 0.0
11/11:30am 28.5 21.6 -2.6 13 14.1 NW 24 35 13 19 1013.6 1013.5 0.0
11/11:00am 27.0 20.0 -3.7 13 13.4 NNW 24 32 13 17 1014.0 1013.9 0.0
11/10:30am 26.3 19.4 -2.4 15 12.8 NNW 24 35 13 19 1014.1 1014.0 0.0
11/10:00am 25.0 18.6 -1.7 17 11.9 NNW 22 35 12 19 1014.3 1014.2 0.0
11/09:30am 24.5 18.3 -0.6 19 11.4 N 22 35 12 19 1014.4 1014.3 0.0
11/09:00am 22.3 16.2 0.2 23 10.0 N 22 35 12 19 1014.2 1014.1 0.0
11/08:30am 20.2 14.5 0.6 27 8.8 N 20 28 11 15 1014.0 1013.9 0.0
11/08:00am 18.2 13.5 0.8 31 7.7 N 15 24 8 13 1014.0 1013.9 0.0
11/07:30am 14.5 11.0 3.3 47 5.1 N 11 13 6 7 1014.0 1013.9 0.0
11/07:00am 12.0 8.9 3.5 56 3.8 NNE 9 11 5 6 1013.8 1013.7 0.0
11/06:30am 11.2 8.3 2.8 56 3.7 NNE 7 9 4 5 1013.7 1013.6 0.0
11/06:00am 11.5 8.7 3.3 57 3.6 NNE 7 9 4 5 1013.5 1013.4 0.0
11/05:30am 12.1 9.5 4.1 58 3.6 NNE 7 7 4 4 1013.5 1013.4 0.0
11/05:00am 12.0 9.2 3.0 54 4.0 N 7 7 4 4 1013.7 1013.6 0.0
11/04:30am 13.9 10.9 1.9 44 5.2 N 7 9 4 5 1013.9 1013.8 0.0
11/04:00am 14.1 10.8 2.7 46 5.1 N 9 11 5 6 1014.1 1014.0 0.0
11/03:30am 14.0 11.2 5.1 55 4.2 N 9 13 5 7 1014.3 1014.2 0.0
11/03:00am 12.0 9.6 4.2 59 3.5 NNE 6 9 3 5 1014.3 1014.2 0.0
11/02:30am 13.1 11.7 3.7 53 4.2 CALM 0 0 0 0 1014.5 1014.4 0.0
11/02:00am 14.7 11.6 3.5 47 5.1 N 9 11 5 6 1014.8 1014.7 0.0
11/01:30am 13.8 11.3 3.9 51 4.5 E 6 11 3 6 1015.3 1015.2 0.0
11/01:00am 13.4 10.9 3.5 51 4.5 ESE 6 9 3 5 1015.6 1015.5 0.0
11/12:30am 13.6 12.1 3.1 49 4.7 CALM 0 0 0 0 1015.9 1015.8 0.0
11/12:00am 14.7 13.0 1.9 42 5.6 CALM 0 0 0 0 1016.0 1015.9 0.0
 
Date/Time
EDT
Temp
°C
App
Temp
°C
Dew
Point
°C
Rel
Hum
%
Delta-T
°C
Wind Press
QNH
hPa
Press
MSL
hPa
Rain since
9am
mm
Dir  Spd
km/h
Gust
km/h
Spd
kts
Gust
kts
10/11:30pm 16.1 13.0 1.4 37 6.5 WNW 7 9 4 5 1016.1 1016.0 0.0
10/11:00pm 16.7 13.6 1.6 36 6.7 W 7 9 4 5 1016.4 1016.3 0.0
10/10:30pm 17.7 14.3 1.7 34 7.2 WNW 9 9 5 5 1016.3 1016.2 0.0
10/10:00pm 18.3 15.2 1.3 32 7.6 WNW 7 9 4 5 1016.2 1016.1 0.0
10/09:30pm 19.1 15.7 1.6 31 7.9 WNW 9 9 5 5 1016.0 1015.9 0.0
10/09:00pm 20.3 17.2 1.2 28 8.7 WNW 7 11 4 6 1015.7 1015.6 0.0
10/08:30pm 21.0 17.5 1.3 27 9.0 WNW 9 11 5 6 1015.9 1015.8 0.0
10/08:00pm 22.8 19.3 1.2 24 10.0 W 9 19 5 10 1015.5 1015.4 0.0
10/07:30pm 24.5 20.5 0.8 21 11.0 W 11 17 6 9 1015.5 1015.4 0.0
10/07:00pm 25.3 21.2 0.0 19 11.7 W 11 17 6 9 1015.4 1015.3 0.0
10/06:30pm 25.3 21.3 0.8 20 11.5 W 11 19 6 10 1015.4 1015.3 0.0
10/06:00pm 25.2 20.9 0.7 20 11.4 W 13 26 7 14 1015.6 1015.5 0.0
10/05:30pm 25.1 20.8 1.3 21 11.2 WSW 13 20 7 11 1015.6 1015.5 0.0
10/05:00pm 24.6 20.0 1.5 22 10.9 WNW 15 22 8 12 1015.8 1015.7 0.0
10/04:30pm 24.5 19.7 2.6 24 10.6 W 17 28 9 15 1016.1 1016.0 0.0
10/04:00pm 24.2 19.4 2.4 24 10.4 WSW 17 28 9 15 1016.7 1016.6 0.0
10/03:30pm 23.6 18.7 1.9 24 10.3 SW 17 28 9 15 1017.2 1017.1 0.0
10/03:00pm 23.0 19.0 3.0 27 9.6 WSW 13 26 7 14 1017.8 1017.6 0.0
10/02:30pm 22.3 18.4 3.4 29 9.1 W 13 24 7 13 1018.3 1018.1 0.0
10/02:00pm 21.0 16.8 3.7 32 8.3 SW 15 24 8 13 1018.8 1018.6 0.0
10/01:30pm 20.8 16.9 3.5 32 8.3 W 13 24 7 13 1019.4 1019.2 0.0
10/01:00pm 20.3 15.7 3.5 33 8.0 WSW 17 24 9 13 1019.7 1019.5 0.0
10/12:30pm 19.2 15.8 3.8 36 7.3 WSW 11 19 6 10 1020.1 1019.9 0.0
10/12:00pm 18.4 14.7 4.6 40 6.6 WSW 13 20 7 11 1020.5 1020.3 0.0
10/11:30am 17.4 13.7 4.7 43 6.1 W 13 26 7 14 1020.9 1020.7 0.0
10/11:00am 17.5 14.4 5.4 45 5.8 SSW 11 24 6 13 1021.1 1020.9 0.0
10/10:30am 16.0 12.0 5.0 48 5.2 WSW 15 22 8 12 1021.2 1021.0 0.0
10/10:00am 15.4 10.7 5.0 50 4.9 SW 19 26 10 14 1021.4 1021.2 0.0
10/09:30am 14.7 10.4 5.2 53 4.5 SW 17 28 9 15 1021.4 1021.2 0.0
10/09:00am 14.5 10.7 5.6 55 4.2 SSW 15 26 8 14 1021.1 1020.9 0.0
10/08:30am 14.0 9.7 5.4 56 4.1 SW 17 24 9 13 1020.8 1020.6 0.0
10/08:00am 13.7 9.5 5.6 58 3.8 SW 17 28 9 15 1020.5 1020.3 0.0
10/07:30am 13.4 9.1 5.3 58 3.8 SW 17 26 9 14 1020.4 1020.2 0.0
10/07:00am 13.1 8.8 5.3 59 3.6 SW 17 28 9 15 1020.0 1019.8 0.0
10/06:30am 13.0 8.6 4.9 58 3.7 SSW 17 30 9 16 1019.8 1019.6 0.0
10/06:00am 13.1 8.7 5.0 58 3.7 SW 17 30 9 16 1019.5 1019.3 0.0
10/05:30am 13.2 8.6 5.4 59 3.7 SW 19 28 10 15 1019.3 1019.1 0.0

Other formats

Comma delimited format used in spreadsheet applications
http://www.bom.gov.au/fwo/IDN60801/IDN60801.94693.axf

JavaScript Object Notation format (JSON) in row-major order
http://www.bom.gov.au/fwo/IDN60801/IDN60801.94693.json

Data quality

Most of these data are generated automatically and are frequently updated. Quality checks on data are not normally performed. It is possible for incorrect values to appear. Refer to information at About Latest Weather Observations and please check the disclaimer before using these data.